Latest Weather Observations for Ferny Creek

IDV60801

Issued at 10:35 pm EST Wednesday 30 July 2014 (issued every 30 minutes, with the page automatically refreshed every 10 minutes)

About weather observations | Map of weather stations | Latest weather observations for VIC | Other Formats
Station Details ID: 086266 Name: FERNY CREEK Lat: -37.87 Lon: 145.35 Height: 512.9 m
Data from the previous 72 hours. | See also: Recent months at Ferny Creek
Date/Time
EST
Temp
°C
App
Temp
°C
Dew
Point
Rel
Hum
%
Delta-T
°C
Wind Press
QNH
hPa
Press
MSL
hPa
Rain
since 9 am
mm
Dir
 
Spd
km/h
Gust
km/h
Spd
kts
Gust
kts
30/10:30pm 11.3 8.8 6.4 72 2.4 N 9 20 5 11 1009.9 - 0.0
30/10:00pm 11.3 8.5 6.8 74 2.2 N 11 32 6 17 1010.1 1010.9 0.0
30/09:30pm 11.3 8.6 7.2 76 2.0 NNW 11 24 6 13 1010.4 - 0.0
30/09:00pm 11.5 9.2 7.4 76 2.0 NNW 9 22 5 12 1010.5 1011.3 0.0
30/08:30pm 11.5 8.9 7.6 77 1.9 N 11 24 6 13 1010.1 - 0.0
30/08:00pm 11.6 9.0 7.7 77 2.0 N 11 26 6 14 1010.0 1010.8 0.0
30/07:30pm 11.8 8.9 8.1 78 1.9 N 13 35 7 19 1010.3 - 0.0
30/07:00pm 11.7 9.6 8.4 80 1.7 N 9 26 5 14 1010.2 1011.0 0.0
30/06:30pm 11.5 9.5 8.5 82 1.5 N 9 22 5 12 1010.3 - 0.0
30/06:00pm 11.6 9.6 8.6 82 1.5 NNW 9 28 5 15 1010.2 1011.0 0.0
30/05:30pm 11.4 9.4 8.6 83 1.4 NNW 9 24 5 13 1010.2 - 0.0
30/05:00pm 11.4 9.5 9.0 85 1.2 N 9 26 5 14 1010.1 1010.9 0.0
30/04:30pm 11.6 9.4 9.2 85 1.2 NNW 11 28 6 15 1010.3 - 0.0
30/04:00pm 11.9 9.7 9.3 84 1.3 NNW 11 32 6 17 1010.3 1011.1 0.0
30/03:30pm 11.8 10.0 9.4 85 1.2 NNW 9 35 5 19 1010.2 - 0.0
30/03:00pm 11.9 10.1 9.3 84 1.3 NNW 9 20 5 11 1010.0 1010.8 0.0
30/02:30pm 12.1 10.3 9.5 84 1.4 NNW 9 19 5 10 1010.0 - 0.0
30/02:00pm 11.8 9.9 9.2 84 1.3 N 9 22 5 12 1010.1 1010.9 0.0
30/01:30pm 11.8 9.6 9.2 84 1.3 NNW 11 22 6 12 1010.4 - 0.0
30/01:00pm 11.7 9.8 8.9 83 1.4 NNW 9 24 5 13 1011.0 1011.7 0.0
30/12:30pm 11.9 10.3 8.9 82 1.5 N 7 20 4 11 1011.3 - 0.0
30/12:00pm 11.9 10.3 8.9 82 1.5 NNW 7 26 4 14 1012.1 1012.9 0.0
30/11:30am 11.4 9.5 9.1 86 1.2 NW 9 28 5 15 1012.3 - 0.0
30/11:00am 10.9 8.7 9.2 89 0.9 NW 11 26 6 14 1013.1 1013.8 0.0
30/10:30am 10.6 8.6 8.5 87 1.1 NW 9 22 5 12 1013.0 - 0.0
30/10:00am 10.5 8.0 8.4 87 1.1 NW 11 28 6 15 1013.1 1013.8 0.0
30/09:30am 10.2 7.7 8.1 87 1.0 NW 11 24 6 13 1012.9 - 0.0
30/09:00am 10.0 7.9 8.1 88 0.9 NW 9 20 5 11 1012.7 1013.4 5.4
30/08:30am 10.0 8.0 8.6 91 0.7 NW 9 22 5 12 1012.4 - 5.4
30/08:00am 9.3 7.3 8.8 97 0.3 NW 9 22 5 12 1012.2 1013.0 5.4
30/07:30am 9.3 7.7 8.8 97 0.3 NW 7 22 4 12 1012.2 - 5.4
30/07:00am 9.4 7.8 8.9 97 0.3 NW 7 19 4 10 1012.1 1012.9 5.4
30/06:30am 9.5 7.9 8.9 96 0.3 NW 7 17 4 9 1012.3 - 5.4
30/06:00am 9.3 7.6 8.4 94 0.4 WNW 7 13 4 7 1012.2 1013.0 5.4
30/05:30am 9.4 7.8 8.6 95 0.4 W 7 19 4 10 1011.8 - 5.4
30/05:00am 9.5 7.9 8.7 95 0.4 WNW 7 15 4 8 1011.3 1012.0 5.4
30/04:30am 9.5 8.1 8.9 96 0.3 NW 6 15 3 8 1011.2 - 5.4
30/04:00am 9.6 8.3 9.1 97 0.3 W 6 19 3 10 1011.4 1012.1 5.4
30/03:30am 9.7 8.4 9.2 97 0.3 WNW 6 15 3 8 1011.3 - 5.4
30/03:00am 9.8 8.5 9.3 97 0.3 WNW 6 19 3 10 1011.4 1012.1 5.4
30/02:30am 9.9 8.1 9.4 97 0.3 WNW 9 20 5 11 1011.2 - 5.4
30/02:00am 10.0 8.6 9.4 96 0.3 NW 7 28 4 15 1011.1 1011.8 5.4
30/01:30am 10.0 8.1 9.2 95 0.4 NW 9 22 5 12 1011.3 - 5.4
30/01:00am 10.0 8.6 9.4 96 0.3 WSW 7 15 4 8 1011.2 1011.9 4.8
30/12:30am 10.0 8.6 9.4 96 0.3 NW 7 20 4 11 1010.8 - 3.6
30/12:00am 10.1 7.9 9.5 96 0.3 WNW 11 22 6 12 1010.8 1011.5 3.4
 
Date/Time
EST
Temp
°C
App
Temp
°C
Dew
Point
Rel
Hum
%
Delta-T
°C
Wind Press
QNH
hPa
Press
MSL
hPa
Rain
since 9 am
mm
Dir
 
Spd
km/h
Gust
km/h
Spd
kts
Gust
kts
29/11:30pm 10.2 8.4 9.3 94 0.5 NW 9 20 5 11 1010.5 - 2.6
29/11:00pm 10.2 8.0 9.4 95 0.4 NW 11 30 6 16 1010.5 1011.3 2.6
29/10:30pm 10.3 8.9 9.7 96 0.3 WNW 7 20 4 11 1010.3 - 2.4
29/10:00pm 10.4 8.3 9.8 96 0.3 NW 11 24 6 13 1010.2 1011.0 2.2
29/09:30pm 10.7 8.5 9.5 92 0.6 WNW 11 19 6 10 1010.1 - 1.6
29/09:00pm 10.9 8.7 9.3 90 0.8 NW 11 28 6 15 1009.8 1010.5 1.4
29/08:30pm 10.9 9.0 9.2 89 0.9 NNW 9 30 5 16 1009.6 - 1.4
29/08:00pm 10.9 8.6 9.0 88 1.0 NW 11 30 6 16 1009.9 1010.6 1.4
29/07:30pm 10.9 8.5 8.8 87 1.1 NW 11 28 6 15 1009.8 - 1.4
29/07:00pm 10.7 9.1 8.6 87 1.1 NNW 7 22 4 12 1009.4 1010.1 1.2
29/06:30pm 10.5 8.1 8.8 89 0.9 NNW 11 26 6 14 1009.1 - 1.2
29/06:00pm 10.4 8.0 8.8 90 0.8 NW 11 24 6 13 1008.9 1009.6 1.2
29/05:30pm 10.1 7.7 8.5 90 0.8 NNW 11 28 6 15 1008.6 - 0.4
29/05:00pm 10.0 7.5 8.4 90 0.8 N 11 24 6 13 1008.1 1008.8 0.2
29/04:30pm 10.4 7.1 8.0 85 1.2 N 15 26 8 14 1007.7 - 0.0
29/04:00pm 10.3 6.9 7.5 83 1.4 N 15 32 8 17 1007.6 1008.3 0.0
29/03:30pm 10.1 7.1 7.5 84 1.3 NNW 13 28 7 15 1008.2 - 0.0
29/03:00pm 10.1 6.6 7.2 82 1.4 N 15 28 8 15 1007.7 1008.4 0.0
29/02:30pm 9.9 6.7 7.0 82 1.4 N 13 33 7 18 1007.7 - 0.0
29/02:00pm 10.0 6.9 7.1 82 1.4 N 13 41 7 22 1007.6 1008.3 0.0
29/01:30pm 10.1 6.9 6.8 80 1.6 N 13 26 7 14 1007.5 - 0.0
29/01:00pm 10.0 7.1 6.5 79 1.7 NNW 11 26 6 14 1008.3 1009.0 0.0
29/12:30pm 9.9 6.6 6.4 79 1.7 N 13 26 7 14 1008.8 - 0.0
29/12:00pm 9.7 6.8 6.6 81 1.5 N 11 22 6 12 1009.5 1010.2 0.0
29/11:30am 9.9 7.0 6.4 79 1.7 NNW 11 30 6 16 1010.0 - 0.0
29/11:00am 9.9 7.0 6.3 78 1.7 NNW 11 28 6 15 1009.6 1010.3 0.0
29/10:30am 10.0 7.0 6.0 76 1.9 N 11 24 6 13 1009.5 - 0.0
29/10:00am 9.4 6.3 5.6 77 1.8 NNW 11 20 6 11 1009.6 1010.3 0.0
29/09:30am 8.9 5.4 5.6 80 1.5 NNW 13 30 7 16 1010.1 - 0.0
29/09:00am 8.8 6.1 5.7 81 1.5 NNW 9 22 5 12 1010.3 1011.1 0.0
29/08:30am 8.8 5.3 5.5 80 1.5 NNW 13 28 7 15 1010.3 - -
29/08:00am 8.8 5.7 5.4 79 1.6 N 11 26 6 14 1010.1 1010.9 -
29/07:30am 8.7 5.9 5.3 79 1.6 N 9 30 5 16 1010.3 - -
29/07:00am 8.6 5.5 5.5 81 1.4 N 11 24 6 13 1010.3 1011.1 -
29/06:30am 8.6 5.9 5.7 82 1.4 N 9 28 5 15 1010.2 - -
29/06:00am 8.8 6.2 5.9 82 1.4 N 9 19 5 10 1009.9 1010.6 -
29/05:30am 8.9 5.9 6.0 82 1.4 N 11 20 6 11 1009.6 - -
29/05:00am 9.1 6.4 5.8 80 1.6 N 9 22 5 12 1009.8 1010.5 -
29/04:30am 9.1 6.5 6.0 81 1.5 N 9 20 5 11 1010.1 - -
29/04:00am 9.2 6.2 5.8 79 1.6 N 11 24 6 13 1010.0 1010.8 -
29/03:30am 9.2 6.1 5.6 78 1.7 N 11 28 6 15 1010.1 - -
29/03:00am 9.2 6.1 5.6 78 1.7 N 11 24 6 13 1010.1 1010.9 0.0
29/02:30am 9.4 6.3 5.6 77 1.8 N 11 26 6 14 1011.0 - -
29/02:00am 9.3 6.2 5.7 78 1.7 N 11 22 6 12 1011.4 1012.1 -
29/01:30am 8.6 6.3 5.7 82 1.4 N 7 17 4 9 1011.7 - -
29/01:00am 8.4 6.1 5.7 83 1.3 N 7 19 4 10 1011.8 1012.6 -
29/12:30am 8.8 6.2 5.9 82 1.4 N 9 19 5 10 1012.2 - -
29/12:00am 9.0 6.7 5.7 80 1.5 N 7 19 4 10 1012.5 1013.3 -
 
Date/Time
EST
Temp
°C
App
Temp
°C
Dew
Point
Rel
Hum
%
Delta-T
°C
Wind Press
QNH
hPa
Press
MSL
hPa
Rain
since 9 am
mm
Dir
 
Spd
km/h
Gust
km/h
Spd
kts
Gust
kts
28/11:30pm 9.1 6.4 5.7 79 1.6 N 9 17 5 9 1012.9 - -
28/11:00pm 8.9 6.6 5.5 79 1.6 N 7 19 4 10 1013.0 1013.7 -
28/10:30pm 9.3 6.2 5.7 78 1.7 N 11 26 6 14 1013.2 - -
28/10:00pm 9.3 6.6 5.7 78 1.7 N 9 35 5 19 1013.2 1013.9 -
28/09:30pm 9.3 6.5 5.3 76 1.9 N 9 15 5 8 1013.1 - -
28/09:00pm 9.5 7.2 5.5 76 1.9 N 7 17 4 9 1013.2 1013.9 0.0
28/08:30pm 9.7 7.0 5.5 75 2.0 N 9 26 5 14 1013.3 - -
28/08:00pm 9.9 7.2 5.5 74 2.1 N 9 22 5 12 1013.2 1013.9 -
28/07:30pm 9.9 7.1 5.3 73 2.2 N 9 20 5 11 1012.9 - -
28/07:00pm 10.0 7.3 5.4 73 2.2 N 9 20 5 11 1012.5 1013.3 -
28/06:30pm 10.0 7.5 5.0 71 2.3 N 7 24 4 13 1012.8 - -
28/06:00pm 10.2 7.9 5.0 70 2.4 N 6 15 3 8 1012.9 1013.6 -
28/05:30pm 10.6 7.8 5.2 69 2.5 NNW 9 17 5 9 1012.7 - -
28/05:00pm 11.1 8.7 5.2 67 2.8 N 7 19 4 10 1013.0 1013.7 -
28/04:30pm 12.0 9.6 5.2 63 3.2 N 7 28 4 15 1013.1 - -
28/04:00pm 12.8 10.0 5.0 59 3.7 N 9 20 5 11 1012.4 1013.2 -
28/03:30pm 13.1 10.6 4.8 57 3.9 N 7 22 4 12 1012.2 - -
28/03:00pm 12.8 10.4 5.2 60 3.6 N 7 19 4 10 1012.7 1013.4 -
28/02:30pm 12.9 10.6 5.8 62 3.4 N 7 19 4 10 1012.8 - -
28/02:00pm 12.7 10.1 6.1 64 3.2 N 9 30 5 16 1013.0 1013.7 -
28/12:30pm 11.6 8.8 5.0 64 3.1 N 9 20 5 11 1014.2 - 0.0
28/12:00pm 11.7 8.8 4.9 63 3.2 N 9 24 5 13 1014.6 1015.4 0.0
28/11:30am 11.7 9.3 5.3 65 3.0 NNW 7 19 4 10 1015.2 - 0.0
28/11:00am 11.6 8.7 4.6 62 3.3 N 9 20 5 11 1015.3 1016.1 0.0
28/10:30am 11.4 8.4 4.2 61 3.3 N 9 17 5 9 1015.9 - 0.0
28/10:00am 11.1 8.1 4.1 62 3.2 N 9 24 5 13 1015.8 1016.6 0.0
28/09:30am 11.0 7.4 3.1 58 3.6 N 11 32 6 17 1015.9 - 0.0
28/09:00am 11.3 7.8 3.3 58 3.6 N 11 26 6 14 1015.9 1016.7 0.0
28/08:30am 10.0 6.9 3.7 65 2.8 NNE 9 24 5 13 1015.9 - 0.0
28/08:00am 9.3 6.6 3.5 67 2.6 N 7 19 4 10 1016.1 1016.9 0.0
28/07:30am 7.9 5.1 3.2 72 2.1 N 7 22 4 12 1016.2 - 0.0
28/07:00am 8.1 5.3 3.2 71 2.1 N 7 22 4 12 1016.3 1017.1 0.0
28/06:30am 8.4 5.6 3.3 70 2.3 N 7 13 4 7 1016.3 - 0.0
28/06:00am 8.2 5.5 3.5 72 2.1 N 7 17 4 9 1016.5 1017.3 0.0
28/05:30am 8.3 5.8 3.6 72 2.1 N 6 15 3 8 1016.4 - 0.0
28/05:00am 8.0 5.3 3.7 74 1.9 N 7 13 4 7 1016.4 1017.2 0.0
28/04:30am 8.2 5.2 3.9 74 1.9 N 9 26 5 14 1016.4 - 0.0
28/04:00am 8.3 5.7 4.1 75 1.9 N 7 17 4 9 1016.6 1017.5 0.0
28/03:30am 8.4 5.5 4.4 76 1.8 N 9 19 5 10 1017.0 - 0.0
28/03:00am 8.6 5.7 4.4 75 1.9 N 9 22 5 12 1017.4 1018.2 0.0
28/02:30am 8.7 6.2 4.7 76 1.8 N 7 17 4 9 1017.6 - 0.0
28/02:00am 8.9 6.4 4.7 75 1.9 N 7 20 4 11 1017.9 1018.7 0.0
28/01:30am 8.8 5.9 4.8 76 1.8 NNW 9 26 5 14 1017.9 - 0.0
28/01:00am 8.8 6.0 5.0 77 1.7 N 9 22 5 12 1018.1 1018.9 0.0
28/12:30am 8.9 5.7 5.1 77 1.8 N 11 22 6 12 1018.2 - 0.0
28/12:00am 8.7 6.0 5.4 80 1.5 N 9 26 5 14 1018.6 1019.5 0.0
 
Date/Time
EST
Temp
°C
App
Temp
°C
Dew
Point
Rel
Hum
%
Delta-T
°C
Wind Press
QNH
hPa
Press
MSL
hPa
Rain
since 9 am
mm
Dir
 
Spd
km/h
Gust
km/h
Spd
kts
Gust
kts
27/11:30pm 8.9 6.2 5.5 79 1.6 N 9 26 5 14 1018.9 - 0.0
27/11:00pm 8.8 6.2 5.9 82 1.4 N 9 20 5 11 1019.3 1020.1 0.0

Other Formats:

Comma delimited format used in spreadsheet applications
http://www.bom.gov.au/fwo/IDV60801/IDV60801.94872.axf

JavaScript Object Notation format (JSON) in row-major order
http://www.bom.gov.au/fwo/IDV60801/IDV60801.94872.json